CMA CGM Florida — 2AKU3 — position and weather

sailwx.info

Track history (hours):
 
Tides and Currents Weather Stations Pressure Air Temp Water Temp Dewpoint Dewpoint Depression Visibility Wind Speed Wind Dir Waves Ship Positions

CMA CGM Florida

Last reported at 2018-Jul-21 22:29 UTC. Time now 2018-Jul-21 22:54 UTC.
Position N 49°27' E 000°10'.

Length 294 m; draft 12.1 m.

Type: Ship (hazmat cat B). MMSI: 235060593.

Date/timePositionNaut miles runAvg speedWind from/ knotsBaromVisibWave heightAir tempDewpointWater temp
2018-Jul-21 22:29N 49°27' E 000°10'0 0.0
2018-Jul-21 21:59N 49°27' E 000°10'0 0.0
2018-Jul-21 21:29N 49°27' E 000°10'0 0.0
2018-Jul-21 20:59N 49°27' E 000°10'0 0.0
2018-Jul-21 20:29N 49°27' E 000°10'0 0.0
2018-Jul-21 19:59N 49°27' E 000°10'0 0.0
2018-Jul-21 19:29N 49°27' E 000°10'0 0.0
2018-Jul-21 18:59N 49°27' E 000°10'0 0.0
2018-Jul-21 18:29N 49°27' E 000°10'0 0.0
2018-Jul-21 17:59N 49°27' E 000°10'0 0.0
2018-Jul-21 17:29N 49°27' E 000°10'0 0.0
2018-Jul-21 16:59N 49°27' E 000°10'0 0.0
2018-Jul-21 16:29N 49°27' E 000°10'0 0.0
2018-Jul-21 15:59N 49°27' E 000°10'0 0.0
2018-Jul-21 15:29N 49°27' E 000°10'0 0.0
2018-Jul-21 14:56N 49°27' E 000°10'0 0.0
2018-Jul-21 14:29N 49°27' E 000°10'0 0.4
2018-Jul-21 13:30N 49°27' E 000°09'3 5.2
2018-Jul-21 13:00N 49°28' E 000°06'714.1
2018-Jul-21 12:30N 49°31' W 000°04'510.5
2018-Jul-21 12:00N 49°33' W 000°12'816.4
2018-Jul-21 11:30N 49°35' W 000°24'816.6
2018-Jul-21 11:00N 49°38' W 000°36'917.0
2018-Jul-21 10:30N 49°41' W 000°48'816.6
2018-Jul-21 10:00N 49°44' W 001°00'917.3
2018-Jul-21 09:30N 49°47' W 001°13'1116.8
2018-Jul-21 08:52N 49°51' W 001°28'916.9
2018-Jul-21 08:20N 49°54' W 001°42'617.1
2018-Jul-21 07:58N 49°54' W 001°51'1017.0
2018-Jul-21 07:23N 49°55' W 002°07'716.8
2018-Jul-21 06:57N 49°54' W 002°18'818.1
2018-Jul-21 06:30N 49°52' W 002°30'1019.2
2018-Jul-21 06:00N 49°50' W 002°45'1119.7
2018-Jul-21 05:27N 49°49' W 003°01'1219.8
2018-Jul-21 04:53N 49°47' W 003°19'1819.8
2018-Jul-21 03:57N 49°45' W 003°47'  
2018-Jul-13 04:35N 26°17' W 079°24'221.4
2018-Jul-13 04:30N 26°15' W 079°24'3521.3
2018-Jul-13 02:51N 25°40' W 079°31'821.6
2018-Jul-13 02:30N 25°33' W 079°32'  
Track history (hours):
 
Tides and Currents Weather Stations Pressure Air Temp Water Temp Dewpoint Dewpoint Depression Visibility Wind Speed Wind Dir Waves Ship Positions

CMA CGM Florida

Last reported at 2018-Jul-21 22:29 UTC. Time now 2018-Jul-21 22:54 UTC.
Position N 49°27' E 000°10'.

Length 294 m; draft 12.1 m.

Type: Ship (hazmat cat B). MMSI: 235060593.

Date/timePositionNaut miles runAvg speedWind from/ knotsBaromVisibWave heightAir tempDewpointWater temp
2018-Jul-21 22:29N 49°27' E 000°10'0 0.0
2018-Jul-21 21:59N 49°27' E 000°10'0 0.0
2018-Jul-21 21:29N 49°27' E 000°10'0 0.0
2018-Jul-21 20:59N 49°27' E 000°10'0 0.0
2018-Jul-21 20:29N 49°27' E 000°10'0 0.0
2018-Jul-21 19:59N 49°27' E 000°10'0 0.0
2018-Jul-21 19:29N 49°27' E 000°10'0 0.0
2018-Jul-21 18:59N 49°27' E 000°10'0 0.0
2018-Jul-21 18:29N 49°27' E 000°10'0 0.0
2018-Jul-21 17:59N 49°27' E 000°10'0 0.0
2018-Jul-21 17:29N 49°27' E 000°10'0 0.0
2018-Jul-21 16:59N 49°27' E 000°10'0 0.0
2018-Jul-21 16:29N 49°27' E 000°10'0 0.0
2018-Jul-21 15:59N 49°27' E 000°10'0 0.0
2018-Jul-21 15:29N 49°27' E 000°10'0 0.0
2018-Jul-21 14:56N 49°27' E 000°10'0 0.0
2018-Jul-21 14:29N 49°27' E 000°10'0 0.4
2018-Jul-21 13:30N 49°27' E 000°09'3 5.2
2018-Jul-21 13:00N 49°28' E 000°06'714.1
2018-Jul-21 12:30N 49°31' W 000°04'510.5
2018-Jul-21 12:00N 49°33' W 000°12'816.4
2018-Jul-21 11:30N 49°35' W 000°24'816.6
2018-Jul-21 11:00N 49°38' W 000°36'917.0
2018-Jul-21 10:30N 49°41' W 000°48'816.6
2018-Jul-21 10:00N 49°44' W 001°00'917.3
2018-Jul-21 09:30N 49°47' W 001°13'1116.8
2018-Jul-21 08:52N 49°51' W 001°28'916.9
2018-Jul-21 08:20N 49°54' W 001°42'617.1
2018-Jul-21 07:58N 49°54' W 001°51'1017.0
2018-Jul-21 07:23N 49°55' W 002°07'716.8
2018-Jul-21 06:57N 49°54' W 002°18'818.1
2018-Jul-21 06:30N 49°52' W 002°30'1019.2
2018-Jul-21 06:00N 49°50' W 002°45'1119.7
2018-Jul-21 05:27N 49°49' W 003°01'1219.8
2018-Jul-21 04:53N 49°47' W 003°19'1819.8
2018-Jul-21 03:57N 49°45' W 003°47'  
2018-Jul-13 04:35N 26°17' W 079°24'221.4
2018-Jul-13 04:30N 26°15' W 079°24'3521.3
2018-Jul-13 02:51N 25°40' W 079°31'821.6
2018-Jul-13 02:30N 25°33' W 079°32'  

Dump ship's entire track history